Memorial Village's Hourly Summary for Wednesday, May 16, 2018
Hour Temp
(f)
RH
(%)
Solar Rad.
(MJ/m2)
Rainfall
(in)
Wind
(mph)
5/16/2018 12:00 AM 76 73 0 0 0.19
5/16/2018 1:00 AM 75 77 0 0 0.65
5/16/2018 2:00 AM 73 78 0 0 0.04
5/16/2018 3:00 AM 73 83 0 0 0.03
5/16/2018 4:00 AM 71 88 0 0 0
5/16/2018 5:00 AM 69 93 0 0 0
5/16/2018 6:00 AM 68 96 0.02 0 0
5/16/2018 7:00 AM 69 88 0.13 0 0.08
5/16/2018 8:00 AM 75 74 0.76 0 0.85
5/16/2018 9:00 AM 80 65 1.2 0 1.31
5/16/2018 10:00 AM 83 54 2.5 0 1.19
5/16/2018 11:00 AM 85 43 3.09 0 2.02
5/16/2018 12:00 PM 88 35 3.38 0 1.86
5/16/2018 1:00 PM 90 35 3.42 0 2.64
5/16/2018 2:00 PM 92 30 3.25 0 2.29
5/16/2018 3:00 PM 93 30 2.87 0 2.12
5/16/2018 4:00 PM 94 29 2.32 0 2.26
5/16/2018 5:00 PM 93 30 1.64 0 1.18
5/16/2018 6:00 PM 92 30 0.89 0 0.92
5/16/2018 7:00 PM 90 31 0.1 0 0.83
5/16/2018 8:00 PM 87 31 0 0 0.8
5/16/2018 9:00 PM 84 39 0 0 1.79
5/16/2018 10:00 PM 81 49 0 0 0.88
5/16/2018 11:00 PM 79 50 0 0 1.09
Data Summary 81 55 25.57 0.00 1.04